Airfield :







YOU CAN JOIN US ON...

 
LOGIN :

Register | Disclaimer

   EN    FR    IT 

 









Legend :    VFR   Marginal VFR   IFR   Intensive IFR   Very Intensive IFR
Visi :
Ceiling :
>= 8 km
>= 3000ft
5 to 8 km
1000 to 3000 ft
1500m to 5 km
500 to 1000 ft
800 to 1500m
200 to 500 ft
< 800m
< 200 ft
Symbols :   Thunderstorms  Fog  Heavy snow  Heavy precipitations  Wind > 20 kt






- Airport Elevation : 241 ft
- IATA code : CEF


KCEF - Westover ARB/Metropolitan

CURRENT METAR :
  • 291456Z 00000KT 4SM -RA BR FEW003 BKN005 OVC050 08/08 A2986 RMK AO2A SLP119 P0008 60012 T00820082 58015

EXPIRED METARs :
  • 291356Z 00000KT 6SM -RA BR FEW003 BKN005 OVC090 08/08 A2991 RMK AO2A SLP136 P0003 T00820082
  • 291337Z 00000KT 2SM -RA BR FEW002 OVC004 08/08 A2992 RMK AO2A SLP139
  • 291318Z 00000KT 1 1/2SM -RA BR BKN002 OVC004 08/08 A2992 RMK AO2A TWR VIS 1 SLP139
  • 291256Z 00000KT 1 1/2SM -RA BR OVC004 08/08 A2992 RMK AO2A SLP139 P0001 T00780078
  • 291240Z AUTO 00000KT 1 1/8SM -RA BR OVC004 08/08 A2992 RMK AO2 VIS 5/8V1 1/8 VIS 5/8 RWY05 DZB12E26RAB26 SLP139

TAF TAF KCEF
Valid from the 29 at 13:00 until the 30 at 19:00 UTC


291300Z 2913/3019 VRB06KT 2400 -RA BR OVC004 QNH2985INS
BECMG 2920/2921 03007KT 3200 -RA BR SCT004 BKN007 OVC020 610602 QNH2974INS
BECMG 3000/3001 03009KT 4800 -RA BR BKN007 OVC010 510109 QNH2973INS
TEMPO 3001/3007 04015G25KT 520004 510409
BECMG 3006/3007 02010G15KT 6000 -SNPL BKN007 OVC020 640503 510109 QNH2976INS
TEMPO 3007/3008 03015G25KT 520004 510409
BECMG 3007/3008 03010G15KT 1600 -SN BKN005 OVC010 620109 510109 QNH2999INS
BECMG 3017/3018 36010G15KT 9999 NSW FEW008 SCT015 OVC100 510205 QNH3000INS TX09/2920Z TNM01/2915Z
KZBW FIR / North America



MET'MAP, your aeronautical weather chart ! - Copyright ORBIFLY December 2007 - Disclaimer

ORBIFLY MET'MAP TEAM :

Programming & Development : Alexandra Zaïnal
Concept & original design : Baudouin d'Aumeries
Assistance for programming : Marc-Olivier Méhu
Technical & hardware support : Manuel Goepfert

Contact : metmap@orbifly.com




SOURCES & CREDITS :

   NOAA